BOBS weather

Bobs
Bradford, Arkansas, United States

Public forecast

Using degrees Fahrenheit for public forecast. Weather courtesy of forecast.io.

Closest aviation weather report (METAR) to Bobs

Closest report is Searcy Municipal Airport, 18.0 nm (33.4 km) SW. Retrieved 2020/02/22 06:56 UTC (6 minutes ago):

KSRC 220656Z AUTO 00000KT 10SM CLR M06/M06 A3052 RMK AO2 SLP338 T10561061 FZRANO

Closest aviation forecast (TAF) to Bobs

Closest forecast is Little Rock Air Force Base, 44.9 nm (83.1 km) SW. Retrieved 2020/02/22 07:00 UTC (2 minutes ago):

TAF KLRF 220700Z 2207/2313 VRB06KT 9999 SKC QNH3025INS BECMG 2307/2308 18006KT 9999 BKN050 QNH3018INS TX11/2222Z TNM05/2212Z